This is the latest recevied weather packets stored in our database for station/object DB0BQ-11. If no packets are shown the sender has not sent any weather packets the latest 10 day(s).
| Time | Temp. | Humidity | Pressure | Rain* | Wind** | Luminosity | Snow |
|---|---|---|---|---|---|---|---|
| 1777873254 | 14.44° C | 90% | 1012.1 hPa | - | - | - | - |
| 1777872030 | 13.89° C | 91% | 1012.1 hPa | - | - | - | - |
| 1777867233 | 13.89° C | 90% | 1011.7 hPa | - | - | - | - |
| 1777866650 | 13.89° C | 88% | 1011.8 hPa | - | - | - | - |
| 1777864864 | 14.44° C | 89% | 1012.1 hPa | - | - | - | - |
| 1777858823 | 14.44° C | 90% | 1011.9 hPa | - | - | - | - |
| 1777857016 | 13.89° C | 92% | 1011.8 hPa | - | - | - | - |
| 1777852821 | 14.44° C | 89% | 1011.8 hPa | - | - | - | - |
| 1777848626 | 14.44° C | 91% | 1011.8 hPa | - | - | - | - |
| 1777845033 | 15° C | 91% | 1011.6 hPa | - | - | - | - |
| 1777842624 | 15° C | 89% | 1011.7 hPa | - | - | - | - |
| 1777840818 | 16.11° C | 84% | 1011.7 hPa | - | - | - | - |
| 1777839031 | 16.67° C | 80% | 1011.7 hPa | - | - | - | - |
| 1777837225 | 16.67° C | 79% | 1011.6 hPa | - | - | - | - |
| 1777834234 | 16.67° C | 77% | 1011.3 hPa | - | - | - | - |
| 1777833050 | 16.67° C | 77% | 1011.1 hPa | - | - | - | - |
| 1777831244 | 16.67° C | 77% | 1011 hPa | - | - | - | - |
| 1777830019 | 16.67° C | 79% | 1010.9 hPa | - | - | - | - |
| 1777828835 | 16.11° C | 79% | 1011 hPa | - | - | - | - |
| 1777828233 | 16.11° C | 80% | 1011.3 hPa | - | - | - | - |
| 1777826426 | 16.11° C | 81% | 1011.1 hPa | - | - | - | - |
| 1777825222 | 16.11° C | 80% | 1011.2 hPa | - | - | - | - |
| 1777815628 | 20° C | 47% | 1010.8 hPa | - | - | - | - |
| 1777815025 | 20° C | 45% | 1010.9 hPa | - | - | - | - |
| 1777814423 | 20.56° C | 45% | 1010.9 hPa | - | - | - | - |
* Rain since midnight (hover to see other rain measurements)
** Current wind speed in m/s (hover to see current wind gust speed)